sensor_id;sensor_type;location;lat;lon;timestamp;pressure;altitude;pressure_sealevel;temperature;humidity
35619;BME280;21743;55.786;37.168;2022-08-30T00:01:27;98925.81;;;20.34;74.06
35619;BME280;21743;55.786;37.168;2022-08-30T00:03:55;98922.84;;;20.30;74.10
35619;BME280;21743;55.786;37.168;2022-08-30T00:06:23;98930.19;;;20.28;74.18
35619;BME280;21743;55.786;37.168;2022-08-30T00:08:50;98924.31;;;20.26;74.42
35619;BME280;21743;55.786;37.168;2022-08-30T00:11:20;98927.19;;;20.25;74.22
35619;BME280;21743;55.786;37.168;2022-08-30T00:13:47;98921.69;;;20.26;74.36
35619;BME280;21743;55.786;37.168;2022-08-30T00:16:16;98922.72;;;20.25;74.21
35619;BME280;21743;55.786;37.168;2022-08-30T00:18:42;98923.59;;;20.19;74.20
35619;BME280;21743;55.786;37.168;2022-08-30T00:21:09;98926.47;;;20.18;74.45
35619;BME280;21743;55.786;37.168;2022-08-30T00:23:35;98921.66;;;20.15;74.44
35619;BME280;21743;55.786;37.168;2022-08-30T00:26:01;98927.50;;;20.17;74.50
35619;BME280;21743;55.786;37.168;2022-08-30T00:28:27;98924.53;;;20.13;74.45
35619;BME280;21743;55.786;37.168;2022-08-30T00:30:53;98919.09;;;20.08;74.59
35619;BME280;21743;55.786;37.168;2022-08-30T00:33:19;98921.28;;;20.11;74.41
35619;BME280;21743;55.786;37.168;2022-08-30T00:35:45;98929.22;;;20.11;74.51
35619;BME280;21743;55.786;37.168;2022-08-30T00:38:12;98925.78;;;20.11;74.31
35619;BME280;21743;55.786;37.168;2022-08-30T00:40:41;98931.50;;;20.08;74.43
35619;BME280;21743;55.786;37.168;2022-08-30T00:43:13;98932.09;;;20.10;74.43
35619;BME280;21743;55.786;37.168;2022-08-30T00:45:41;98929.88;;;20.07;74.36
35619;BME280;21743;55.786;37.168;2022-08-30T00:48:07;98941.19;;;20.14;74.15
35619;BME280;21743;55.786;37.168;2022-08-30T00:50:39;98944.63;;;20.14;74.27
35619;BME280;21743;55.786;37.168;2022-08-30T00:53:13;98933.47;;;20.12;74.31
35619;BME280;21743;55.786;37.168;2022-08-30T00:55:42;98935.53;;;20.10;74.42
35619;BME280;21743;55.786;37.168;2022-08-30T00:58:13;98931.28;;;20.09;74.34
35619;BME280;21743;55.786;37.168;2022-08-30T01:00:41;98919.66;;;19.98;74.78
35619;BME280;21743;55.786;37.168;2022-08-30T01:03:08;98932.84;;;19.98;74.76
35619;BME280;21743;55.786;37.168;2022-08-30T01:05:36;98929.19;;;19.99;74.86
35619;BME280;21743;55.786;37.168;2022-08-30T01:08:03;98920.69;;;19.97;74.74
35619;BME280;21743;55.786;37.168;2022-08-30T01:10:30;98921.03;;;20.01;74.77
35619;BME280;21743;55.786;37.168;2022-08-30T01:12:58;98922.41;;;20.03;74.41
35619;BME280;21743;55.786;37.168;2022-08-30T01:15:24;98920.78;;;20.02;74.75
35619;BME280;21743;55.786;37.168;2022-08-30T01:17:50;98913.69;;;20.03;74.41
35619;BME280;21743;55.786;37.168;2022-08-30T01:20:26;98919.09;;;20.08;74.43
35619;BME280;21743;55.786;37.168;2022-08-30T01:22:57;98931.59;;;20.01;74.53
35619;BME280;21743;55.786;37.168;2022-08-30T01:25:27;98919.28;;;19.95;74.59
35619;BME280;21743;55.786;37.168;2022-08-30T01:27:58;98921.03;;;20.01;74.42
35619;BME280;21743;55.786;37.168;2022-08-30T01:30:26;98929.03;;;19.94;74.58
35619;BME280;21743;55.786;37.168;2022-08-30T01:32:57;98923.09;;;19.99;74.38
35619;BME280;21743;55.786;37.168;2022-08-30T01:35:23;98920.47;;;19.99;74.52
35619;BME280;21743;55.786;37.168;2022-08-30T01:37:50;98913.34;;;19.99;74.21
35619;BME280;21743;55.786;37.168;2022-08-30T01:40:16;98914.16;;;20.00;74.29
35619;BME280;21743;55.786;37.168;2022-08-30T01:42:43;98907.84;;;20.01;74.09
35619;BME280;21743;55.786;37.168;2022-08-30T01:45:09;98916.44;;;19.96;73.94
35619;BME280;21743;55.786;37.168;2022-08-30T01:47:35;98908.94;;;19.93;74.38
35619;BME280;21743;55.786;37.168;2022-08-30T01:50:01;98923.19;;;19.92;74.38
35619;BME280;21743;55.786;37.168;2022-08-30T01:52:26;98912.63;;;19.92;74.23
35619;BME280;21743;55.786;37.168;2022-08-30T01:54:52;98921.78;;;19.90;74.01
35619;BME280;21743;55.786;37.168;2022-08-30T01:57:21;98906.72;;;19.79;74.12
35619;BME280;21743;55.786;37.168;2022-08-30T01:59:47;98914.41;;;19.80;74.57
35619;BME280;21743;55.786;37.168;2022-08-30T02:02:26;98908.75;;;19.77;74.39
35619;BME280;21743;55.786;37.168;2022-08-30T02:04:54;98904.28;;;19.77;74.49
35619;BME280;21743;55.786;37.168;2022-08-30T02:07:21;98903.47;;;19.77;74.33
35619;BME280;21743;55.786;37.168;2022-08-30T02:09:47;98904.38;;;19.71;74.47
35619;BME280;21743;55.786;37.168;2022-08-30T02:12:13;98903.81;;;19.69;74.53
35619;BME280;21743;55.786;37.168;2022-08-30T02:14:39;98902.31;;;19.73;74.15
35619;BME280;21743;55.786;37.168;2022-08-30T02:17:10;98910.53;;;19.83;74.08
35619;BME280;21743;55.786;37.168;2022-08-30T02:19:37;98903.19;;;19.85;73.92
35619;BME280;21743;55.786;37.168;2022-08-30T02:22:04;98912.34;;;19.82;73.85
35619;BME280;21743;55.786;37.168;2022-08-30T02:24:30;98914.19;;;19.82;73.96
35619;BME280;21743;55.786;37.168;2022-08-30T02:26:56;98913.16;;;19.83;73.80
35619;BME280;21743;55.786;37.168;2022-08-30T02:29:23;98915.59;;;19.84;73.60
35619;BME280;21743;55.786;37.168;2022-08-30T02:31:49;98922.47;;;19.85;73.62
35619;BME280;21743;55.786;37.168;2022-08-30T02:34:16;98926.00;;;19.79;73.72
35619;BME280;21743;55.786;37.168;2022-08-30T02:36:42;98916.63;;;19.65;74.33
35619;BME280;21743;55.786;37.168;2022-08-30T02:39:09;98923.38;;;19.61;74.39
35619;BME280;21743;55.786;37.168;2022-08-30T02:41:36;98922.56;;;19.60;74.54
35619;BME280;21743;55.786;37.168;2022-08-30T02:44:03;98917.50;;;19.59;74.52
35619;BME280;21743;55.786;37.168;2022-08-30T02:46:29;98919.56;;;19.57;74.57
35619;BME280;21743;55.786;37.168;2022-08-30T02:48:55;98925.66;;;19.57;74.54
35619;BME280;21743;55.786;37.168;2022-08-30T02:51:20;98917.59;;;19.52;74.50
35619;BME280;21743;55.786;37.168;2022-08-30T02:53:46;98926.81;;;19.61;74.54
35619;BME280;21743;55.786;37.168;2022-08-30T02:56:13;98925.00;;;19.62;74.31
35619;BME280;21743;55.786;37.168;2022-08-30T02:58:40;98923.16;;;19.62;74.23
35619;BME280;21743;55.786;37.168;2022-08-30T03:01:08;98933.13;;;19.60;74.59
35619;BME280;21743;55.786;37.168;2022-08-30T03:03:34;98920.59;;;19.56;74.46
35619;BME280;21743;55.786;37.168;2022-08-30T03:06:00;98922.44;;;19.55;74.68
35619;BME280;21743;55.786;37.168;2022-08-30T03:08:30;98926.97;;;19.48;74.84
35619;BME280;21743;55.786;37.168;2022-08-30T03:10:57;98922.53;;;19.42;75.23
35619;BME280;21743;55.786;37.168;2022-08-30T03:13:23;98917.75;;;19.39;75.20
35619;BME280;21743;55.786;37.168;2022-08-30T03:15:49;98932.28;;;19.42;75.13
35619;BME280;21743;55.786;37.168;2022-08-30T03:18:16;98930.69;;;19.41;75.40
35619;BME280;21743;55.786;37.168;2022-08-30T03:20:43;98932.97;;;19.37;75.23
35619;BME280;21743;55.786;37.168;2022-08-30T03:23:08;98937.00;;;19.40;75.50
35619;BME280;21743;55.786;37.168;2022-08-30T03:25:35;98933.31;;;19.41;75.26
35619;BME280;21743;55.786;37.168;2022-08-30T03:28:01;98932.16;;;19.37;75.10
35619;BME280;21743;55.786;37.168;2022-08-30T03:30:27;98943.06;;;19.40;75.24
35619;BME280;21743;55.786;37.168;2022-08-30T03:32:53;98937.00;;;19.40;75.43
35619;BME280;21743;55.786;37.168;2022-08-30T03:35:19;98945.69;;;19.40;75.39
35619;BME280;21743;55.786;37.168;2022-08-30T03:37:45;98945.56;;;19.35;75.49
35619;BME280;21743;55.786;37.168;2022-08-30T03:40:12;98945.34;;;19.37;75.37
35619;BME280;21743;55.786;37.168;2022-08-30T03:42:39;98946.59;;;19.34;75.57
35619;BME280;21743;55.786;37.168;2022-08-30T03:45:06;98949.63;;;19.38;75.62
35619;BME280;21743;55.786;37.168;2022-08-30T03:47:32;98953.63;;;19.40;75.34
35619;BME280;21743;55.786;37.168;2022-08-30T03:49:58;98947.91;;;19.43;75.19
35619;BME280;21743;55.786;37.168;2022-08-30T03:52:25;98955.38;;;19.46;75.32
35619;BME280;21743;55.786;37.168;2022-08-30T03:54:51;98947.69;;;19.45;75.17
35619;BME280;21743;55.786;37.168;2022-08-30T03:57:18;98957.00;;;19.47;75.34
35619;BME280;21743;55.786;37.168;2022-08-30T03:59:43;98961.06;;;19.50;75.38
35619;BME280;21743;55.786;37.168;2022-08-30T04:02:09;98948.69;;;19.50;75.30
35619;BME280;21743;55.786;37.168;2022-08-30T04:04:35;98948.69;;;19.50;75.35
35619;BME280;21743;55.786;37.168;2022-08-30T04:07:01;98960.09;;;19.44;75.49
35619;BME280;21743;55.786;37.168;2022-08-30T04:09:27;98956.59;;;19.50;75.62
35619;BME280;21743;55.786;37.168;2022-08-30T04:11:53;98941.34;;;19.52;75.47
35619;BME280;21743;55.786;37.168;2022-08-30T04:14:19;98962.31;;;19.65;75.29
35619;BME280;21743;55.786;37.168;2022-08-30T04:16:46;98953.97;;;19.69;75.15
35619;BME280;21743;55.786;37.168;2022-08-30T04:19:12;98948.00;;;19.73;75.03
35619;BME280;21743;55.786;37.168;2022-08-30T04:21:38;98949.59;;;19.74;74.85
35619;BME280;21743;55.786;37.168;2022-08-30T04:24:03;98961.13;;;19.80;74.82
35619;BME280;21743;55.786;37.168;2022-08-30T04:26:29;98950.13;;;19.83;74.70
35619;BME280;21743;55.786;37.168;2022-08-30T04:28:56;98960.25;;;19.86;74.78
35619;BME280;21743;55.786;37.168;2022-08-30T04:31:22;98954.50;;;19.89;74.66
35619;BME280;21743;55.786;37.168;2022-08-30T04:33:48;98954.06;;;19.92;74.56
35619;BME280;21743;55.786;37.168;2022-08-30T04:36:14;98954.44;;;19.95;74.43
35619;BME280;21743;55.786;37.168;2022-08-30T04:38:41;98948.47;;;20.00;74.38
35619;BME280;21743;55.786;37.168;2022-08-30T04:41:12;98950.44;;;20.05;74.27
35619;BME280;21743;55.786;37.168;2022-08-30T04:43:40;98960.56;;;20.08;74.01
35619;BME280;21743;55.786;37.168;2022-08-30T04:46:06;98958.34;;;20.05;74.40
35619;BME280;21743;55.786;37.168;2022-08-30T04:48:33;98950.88;;;20.01;74.12
35619;BME280;21743;55.786;37.168;2022-08-30T04:50:59;98959.66;;;20.14;73.96
35619;BME280;21743;55.786;37.168;2022-08-30T04:53:24;98955.63;;;20.11;74.05
35619;BME280;21743;55.786;37.168;2022-08-30T04:55:50;98953.81;;;20.12;74.09
35619;BME280;21743;55.786;37.168;2022-08-30T04:58:16;98955.41;;;20.13;74.06
35619;BME280;21743;55.786;37.168;2022-08-30T05:00:42;98950.50;;;20.16;74.10
35619;BME280;21743;55.786;37.168;2022-08-30T05:03:08;98956.34;;;20.18;74.26
35619;BME280;21743;55.786;37.168;2022-08-30T05:05:34;98964.41;;;20.23;74.08
35619;BME280;21743;55.786;37.168;2022-08-30T05:08:08;98956.84;;;20.27;73.63
35619;BME280;21743;55.786;37.168;2022-08-30T05:10:39;98961.44;;;20.31;73.59
35619;BME280;21743;55.786;37.168;2022-08-30T05:13:06;98959.59;;;20.32;73.42
35619;BME280;21743;55.786;37.168;2022-08-30T05:15:32;98957.19;;;20.30;73.42
35619;BME280;21743;55.786;37.168;2022-08-30T05:17:58;98965.94;;;20.31;73.47
35619;BME280;21743;55.786;37.168;2022-08-30T05:20:23;98974.00;;;20.36;73.35
35619;BME280;21743;55.786;37.168;2022-08-30T05:22:49;98967.69;;;20.37;73.36
35619;BME280;21743;55.786;37.168;2022-08-30T05:25:21;98971.63;;;20.46;72.97
35619;BME280;21743;55.786;37.168;2022-08-30T05:27:47;98957.03;;;20.44;73.13
35619;BME280;21743;55.786;37.168;2022-08-30T05:30:15;98959.56;;;20.50;72.98
35619;BME280;21743;55.786;37.168;2022-08-30T05:32:41;98952.34;;;20.57;72.76
35619;BME280;21743;55.786;37.168;2022-08-30T05:35:09;98953.16;;;20.58;72.67
35619;BME280;21743;55.786;37.168;2022-08-30T05:37:35;98958.78;;;20.61;72.46
35619;BME280;21743;55.786;37.168;2022-08-30T05:40:03;98965.00;;;20.67;72.49
35619;BME280;21743;55.786;37.168;2022-08-30T05:42:30;98965.94;;;20.73;72.24
35619;BME280;21743;55.786;37.168;2022-08-30T05:44:56;98956.59;;;20.70;72.07
35619;BME280;21743;55.786;37.168;2022-08-30T05:47:21;98962.03;;;20.75;72.04
35619;BME280;21743;55.786;37.168;2022-08-30T05:49:48;98963.28;;;20.84;71.81
35619;BME280;21743;55.786;37.168;2022-08-30T05:52:14;98966.06;;;20.89;71.56
35619;BME280;21743;55.786;37.168;2022-08-30T05:54:51;98958.56;;;20.98;71.34
35619;BME280;21743;55.786;37.168;2022-08-30T05:57:17;98963.19;;;21.02;71.30
35619;BME280;21743;55.786;37.168;2022-08-30T05:59:43;98963.06;;;21.09;70.87
35619;BME280;21743;55.786;37.168;2022-08-30T06:02:08;98963.97;;;21.15;70.66
35619;BME280;21743;55.786;37.168;2022-08-30T06:04:35;98949.16;;;21.14;70.58
35619;BME280;21743;55.786;37.168;2022-08-30T06:07:03;98965.03;;;21.25;70.47
35619;BME280;21743;55.786;37.168;2022-08-30T06:09:29;98966.88;;;21.36;70.10
35619;BME280;21743;55.786;37.168;2022-08-30T06:11:55;98961.09;;;21.39;69.71
35619;BME280;21743;55.786;37.168;2022-08-30T06:14:23;98960.75;;;21.48;69.41
35619;BME280;21743;55.786;37.168;2022-08-30T06:16:49;98962.94;;;21.51;69.00
35619;BME280;21743;55.786;37.168;2022-08-30T06:19:15;98961.69;;;21.53;68.97
35619;BME280;21743;55.786;37.168;2022-08-30T06:21:43;98958.66;;;21.61;68.67
35619;BME280;21743;55.786;37.168;2022-08-30T06:24:12;98961.88;;;21.63;68.73
35619;BME280;21743;55.786;37.168;2022-08-30T06:26:40;98959.88;;;21.70;68.51
35619;BME280;21743;55.786;37.168;2022-08-30T06:29:07;98956.06;;;21.78;68.45
35619;BME280;21743;55.786;37.168;2022-08-30T06:31:33;98959.47;;;21.90;68.10
35619;BME280;21743;55.786;37.168;2022-08-30T06:33:59;98970.53;;;21.99;68.16
35619;BME280;21743;55.786;37.168;2022-08-30T06:36:25;98967.75;;;22.05;67.40
35619;BME280;21743;55.786;37.168;2022-08-30T06:38:53;98963.44;;;22.16;67.07
35619;BME280;21743;55.786;37.168;2022-08-30T06:41:23;98954.72;;;22.32;66.68
35619;BME280;21743;55.786;37.168;2022-08-30T06:43:49;98945.66;;;22.45;66.59
35619;BME280;21743;55.786;37.168;2022-08-30T06:46:18;98947.50;;;22.61;65.49
35619;BME280;21743;55.786;37.168;2022-08-30T06:48:44;98934.56;;;22.65;65.54
35619;BME280;21743;55.786;37.168;2022-08-30T06:51:10;98947.44;;;22.73;64.99
35619;BME280;21743;55.786;37.168;2022-08-30T06:53:35;98953.22;;;22.70;65.21
35619;BME280;21743;55.786;37.168;2022-08-30T06:56:07;98956.13;;;22.68;65.43
35619;BME280;21743;55.786;37.168;2022-08-30T06:58:35;98951.63;;;22.69;65.04
35619;BME280;21743;55.786;37.168;2022-08-30T07:01:02;98956.63;;;22.82;65.11
35619;BME280;21743;55.786;37.168;2022-08-30T07:03:28;98953.84;;;23.10;64.13
35619;BME280;21743;55.786;37.168;2022-08-30T07:05:55;98956.78;;;23.31;64.90
35619;BME280;21743;55.786;37.168;2022-08-30T07:08:23;98957.09;;;23.51;63.80
35619;BME280;21743;55.786;37.168;2022-08-30T07:10:50;98958.19;;;23.55;62.92
35619;BME280;21743;55.786;37.168;2022-08-30T07:13:16;98963.50;;;23.55;62.50
35619;BME280;21743;55.786;37.168;2022-08-30T07:15:44;98950.53;;;23.59;62.30
35619;BME280;21743;55.786;37.168;2022-08-30T07:18:10;98959.69;;;23.68;61.80
35619;BME280;21743;55.786;37.168;2022-08-30T07:20:56;98962.53;;;23.83;61.58
35619;BME280;21743;55.786;37.168;2022-08-30T07:23:22;98967.78;;;24.05;61.45
35619;BME280;21743;55.786;37.168;2022-08-30T07:25:48;98965.97;;;24.32;60.95
35619;BME280;21743;55.786;37.168;2022-08-30T07:28:15;98956.25;;;24.48;60.36
35619;BME280;21743;55.786;37.168;2022-08-30T07:30:41;98960.72;;;24.69;59.48
35619;BME280;21743;55.786;37.168;2022-08-30T07:33:08;98947.50;;;24.84;59.06
35619;BME280;21743;55.786;37.168;2022-08-30T07:35:34;98964.19;;;25.07;58.70
35619;BME280;21743;55.786;37.168;2022-08-30T07:38:01;98956.81;;;25.19;57.70
35619;BME280;21743;55.786;37.168;2022-08-30T07:40:27;98954.41;;;25.22;57.28
35619;BME280;21743;55.786;37.168;2022-08-30T07:42:53;98952.34;;;25.30;57.61
35619;BME280;21743;55.786;37.168;2022-08-30T07:45:19;98946.25;;;25.39;57.35
35619;BME280;21743;55.786;37.168;2022-08-30T07:47:45;98956.16;;;25.54;56.95
35619;BME280;21743;55.786;37.168;2022-08-30T07:50:11;98952.97;;;25.52;56.76
35619;BME280;21743;55.786;37.168;2022-08-30T07:52:37;98956.97;;;25.54;56.86
35619;BME280;21743;55.786;37.168;2022-08-30T07:55:05;98958.31;;;25.57;56.36
35619;BME280;21743;55.786;37.168;2022-08-30T07:57:31;98950.88;;;25.59;55.98
35619;BME280;21743;55.786;37.168;2022-08-30T07:59:59;98957.06;;;25.65;56.04
35619;BME280;21743;55.786;37.168;2022-08-30T08:02:25;98955.50;;;25.84;56.34
35619;BME280;21743;55.786;37.168;2022-08-30T08:04:51;98955.84;;;26.13;55.94
35619;BME280;21743;55.786;37.168;2022-08-30T08:07:17;98955.59;;;26.19;55.09
35619;BME280;21743;55.786;37.168;2022-08-30T08:09:43;98960.16;;;26.29;54.61
35619;BME280;21743;55.786;37.168;2022-08-30T08:12:09;98968.75;;;26.41;54.27
35619;BME280;21743;55.786;37.168;2022-08-30T08:14:35;98967.69;;;26.57;53.17
35619;BME280;21743;55.786;37.168;2022-08-30T08:17:01;98950.31;;;26.80;53.05
35619;BME280;21743;55.786;37.168;2022-08-30T08:19:27;98955.13;;;27.04;52.92
35619;BME280;21743;55.786;37.168;2022-08-30T08:21:53;98960.09;;;27.36;51.27
35619;BME280;21743;55.786;37.168;2022-08-30T08:24:22;98953.91;;;27.60;50.35
35619;BME280;21743;55.786;37.168;2022-08-30T08:26:48;98954.84;;;27.90;49.31
35619;BME280;21743;55.786;37.168;2022-08-30T08:29:14;98951.00;;;28.01;48.84
35619;BME280;21743;55.786;37.168;2022-08-30T08:31:40;98954.34;;;28.27;48.38
35619;BME280;21743;55.786;37.168;2022-08-30T08:34:07;98951.88;;;28.41;47.13
35619;BME280;21743;55.786;37.168;2022-08-30T08:36:34;98945.31;;;28.57;46.82
35619;BME280;21743;55.786;37.168;2022-08-30T08:39:02;98945.00;;;28.92;45.66
35619;BME280;21743;55.786;37.168;2022-08-30T08:41:49;98944.41;;;29.00;44.83
35619;BME280;21743;55.786;37.168;2022-08-30T08:47:17;98944.19;;;28.92;45.36
35619;BME280;21743;55.786;37.168;2022-08-30T08:49:50;98949.16;;;29.03;45.33
35619;BME280;21743;55.786;37.168;2022-08-30T08:52:22;98938.16;;;29.05;44.31
35619;BME280;21743;55.786;37.168;2022-08-30T08:55:13;98941.56;;;29.16;45.04
35619;BME280;21743;55.786;37.168;2022-08-30T08:57:40;98933.53;;;29.16;44.45
35619;BME280;21743;55.786;37.168;2022-08-30T09:00:09;98949.25;;;29.22;44.35
35619;BME280;21743;55.786;37.168;2022-08-30T09:02:44;98940.47;;;29.17;44.53
35619;BME280;21743;55.786;37.168;2022-08-30T09:05:17;98949.31;;;28.88;44.75
35619;BME280;21743;55.786;37.168;2022-08-30T09:08:12;98945.50;;;28.65;45.57
35619;BME280;21743;55.786;37.168;2022-08-30T09:10:36;98950.34;;;28.58;45.64
35619;BME280;21743;55.786;37.168;2022-08-30T09:13:03;98946.66;;;28.54;45.25
35619;BME280;21743;55.786;37.168;2022-08-30T09:15:30;98953.50;;;28.37;45.87
35619;BME280;21743;55.786;37.168;2022-08-30T09:17:59;98959.69;;;28.27;46.14
35619;BME280;21743;55.786;37.168;2022-08-30T09:20:38;98961.34;;;28.18;46.95
35619;BME280;21743;55.786;37.168;2022-08-30T09:25:54;98956.53;;;28.15;46.14
35619;BME280;21743;55.786;37.168;2022-08-30T09:28:29;98961.94;;;28.10;46.52
35619;BME280;21743;55.786;37.168;2022-08-30T09:31:23;98955.81;;;28.04;46.96
35619;BME280;21743;55.786;37.168;2022-08-30T09:34:06;98958.50;;;27.99;46.50
35619;BME280;21743;55.786;37.168;2022-08-30T09:39:13;98960.44;;;27.93;46.03
35619;BME280;21743;55.786;37.168;2022-08-30T09:41:43;98962.06;;;27.84;46.98
35619;BME280;21743;55.786;37.168;2022-08-30T09:46:53;98961.28;;;27.84;47.59
35619;BME280;21743;55.786;37.168;2022-08-30T09:49:37;98953.84;;;27.76;47.59
35619;BME280;21743;55.786;37.168;2022-08-30T10:00:14;98955.75;;;27.55;47.81
35619;BME280;21743;55.786;37.168;2022-08-30T10:03:02;98944.56;;;27.48;47.28
35619;BME280;21743;55.786;37.168;2022-08-30T10:10:55;98953.94;;;27.45;46.99
35619;BME280;21743;55.786;37.168;2022-08-30T10:16:17;98957.72;;;27.34;47.45
35619;BME280;21743;55.786;37.168;2022-08-30T10:18:54;98956.13;;;27.33;46.83
35619;BME280;21743;55.786;37.168;2022-08-30T10:21:47;98952.94;;;27.26;46.18
35619;BME280;21743;55.786;37.168;2022-08-30T10:24:20;98961.47;;;27.23;47.31
35619;BME280;21743;55.786;37.168;2022-08-30T10:27:01;98960.66;;;27.22;46.77
35619;BME280;21743;55.786;37.168;2022-08-30T10:34:51;98951.31;;;27.25;46.59
35619;BME280;21743;55.786;37.168;2022-08-30T10:37:24;98951.31;;;27.25;47.78
35619;BME280;21743;55.786;37.168;2022-08-30T10:39:53;98951.31;;;27.25;48.00
35619;BME280;21743;55.786;37.168;2022-08-30T10:42:30;98961.75;;;27.21;47.19
35619;BME280;21743;55.786;37.168;2022-08-30T10:45:04;98963.38;;;27.17;46.61
35619;BME280;21743;55.786;37.168;2022-08-30T10:48:00;98959.09;;;27.16;46.81
35619;BME280;21743;55.786;37.168;2022-08-30T10:50:33;98950.56;;;27.14;47.51
35619;BME280;21743;55.786;37.168;2022-08-30T10:53:12;98951.09;;;27.16;46.16
35619;BME280;21743;55.786;37.168;2022-08-30T10:56:01;98951.63;;;27.13;46.41
35619;BME280;21743;55.786;37.168;2022-08-30T10:58:28;98950.81;;;27.18;46.46
35619;BME280;21743;55.786;37.168;2022-08-30T11:01:06;98956.16;;;27.18;47.06
35619;BME280;21743;55.786;37.168;2022-08-30T11:14:22;98940.13;;;27.13;47.06
35619;BME280;21743;55.786;37.168;2022-08-30T11:16:51;98944.16;;;27.15;47.30
35619;BME280;21743;55.786;37.168;2022-08-30T11:21:47;98949.22;;;27.17;46.75
35619;BME280;21743;55.786;37.168;2022-08-30T11:24:21;98944.41;;;27.19;45.84
35619;BME280;21743;55.786;37.168;2022-08-30T11:31:53;98942.50;;;27.24;45.50
35619;BME280;21743;55.786;37.168;2022-08-30T11:55:58;98935.78;;;27.42;41.50
35619;BME280;21743;55.786;37.168;2022-08-30T11:58:56;98932.56;;;27.40;41.40
35619;BME280;21743;55.786;37.168;2022-08-30T12:04:12;98923.00;;;27.34;41.86
35619;BME280;21743;55.786;37.168;2022-08-30T12:07:05;98927.53;;;27.28;40.97
35619;BME280;21743;55.786;37.168;2022-08-30T12:15:05;98912.06;;;27.20;42.00
35619;BME280;21743;55.786;37.168;2022-08-30T12:17:55;98925.66;;;27.29;41.55
35619;BME280;21743;55.786;37.168;2022-08-30T12:20:47;98920.59;;;27.27;41.36
35619;BME280;21743;55.786;37.168;2022-08-30T12:23:19;98919.00;;;27.31;41.13
35619;BME280;21743;55.786;37.168;2022-08-30T12:25:49;98910.44;;;27.35;40.46
35619;BME280;21743;55.786;37.168;2022-08-30T12:28:23;98905.31;;;27.38;39.85
35619;BME280;21743;55.786;37.168;2022-08-30T12:30:51;98902.91;;;27.37;39.91
35619;BME280;21743;55.786;37.168;2022-08-30T12:33:26;98905.06;;;27.40;39.62
35619;BME280;21743;55.786;37.168;2022-08-30T12:35:57;98908.25;;;27.37;39.91
35619;BME280;21743;55.786;37.168;2022-08-30T12:38:24;98908.53;;;27.40;40.09
35619;BME280;21743;55.786;37.168;2022-08-30T12:40:58;98902.38;;;27.40;40.17
35619;BME280;21743;55.786;37.168;2022-08-30T12:43:48;98901.84;;;27.43;40.30
35619;BME280;21743;55.786;37.168;2022-08-30T12:46:16;98892.75;;;27.39;41.11
35619;BME280;21743;55.786;37.168;2022-08-30T12:48:44;98894.38;;;27.40;40.76
35619;BME280;21743;55.786;37.168;2022-08-30T12:51:26;98904.22;;;27.44;40.51
35619;BME280;21743;55.786;37.168;2022-08-30T12:53:52;98899.44;;;27.41;40.91
35619;BME280;21743;55.786;37.168;2022-08-30T12:56:18;98905.31;;;27.43;40.98
35619;BME280;21743;55.786;37.168;2022-08-30T12:58:50;98905.56;;;27.42;40.28
35619;BME280;21743;55.786;37.168;2022-08-30T13:01:33;98901.03;;;27.42;39.98
35619;BME280;21743;55.786;37.168;2022-08-30T13:04:21;98895.97;;;27.41;39.96
35619;BME280;21743;55.786;37.168;2022-08-30T13:09:27;98890.63;;;27.41;40.25
35619;BME280;21743;55.786;37.168;2022-08-30T13:11:54;98884.22;;;27.37;40.10
35619;BME280;21743;55.786;37.168;2022-08-30T13:14:41;98885.00;;;27.42;40.22
35619;BME280;21743;55.786;37.168;2022-08-30T13:17:27;98881.00;;;27.40;39.62
35619;BME280;21743;55.786;37.168;2022-08-30T13:22:36;98881.81;;;27.40;39.74
35619;BME280;21743;55.786;37.168;2022-08-30T13:25:03;98877.81;;;27.38;39.43
35619;BME280;21743;55.786;37.168;2022-08-30T13:27:31;98869.56;;;27.34;39.66
35619;BME280;21743;55.786;37.168;2022-08-30T13:30:07;98885.28;;;27.36;39.64
35619;BME280;21743;55.786;37.168;2022-08-30T13:32:33;98879.13;;;27.35;38.96
35619;BME280;21743;55.786;37.168;2022-08-30T13:35:03;98886.09;;;27.36;38.58
35619;BME280;21743;55.786;37.168;2022-08-30T13:37:30;98884.78;;;27.34;38.29
35619;BME280;21743;55.786;37.168;2022-08-30T13:39:56;98893.81;;;27.38;38.23
35619;BME280;21743;55.786;37.168;2022-08-30T13:42:22;98885.28;;;27.41;37.96
35619;BME280;21743;55.786;37.168;2022-08-30T13:44:48;98872.16;;;27.44;38.01
35619;BME280;21743;55.786;37.168;2022-08-30T13:47:15;98871.63;;;27.47;38.19
35619;BME280;21743;55.786;37.168;2022-08-30T13:49:41;98872.97;;;27.45;37.98
35619;BME280;21743;55.786;37.168;2022-08-30T13:52:17;98874.31;;;27.47;37.45
35619;BME280;21743;55.786;37.168;2022-08-30T13:54:43;98872.69;;;27.46;37.43
35619;BME280;21743;55.786;37.168;2022-08-30T13:57:10;98868.44;;;27.45;37.71
35619;BME280;21743;55.786;37.168;2022-08-30T13:59:36;98872.72;;;27.41;38.00
35619;BME280;21743;55.786;37.168;2022-08-30T14:02:02;98867.63;;;27.40;37.65
35619;BME280;21743;55.786;37.168;2022-08-30T14:04:28;98863.91;;;27.36;37.65
35619;BME280;21743;55.786;37.168;2022-08-30T14:06:54;98861.56;;;27.29;37.40
35619;BME280;21743;55.786;37.168;2022-08-30T14:09:21;98849.56;;;27.21;37.91
35619;BME280;21743;55.786;37.168;2022-08-30T14:11:46;98857.81;;;27.25;37.97
35619;BME280;21743;55.786;37.168;2022-08-30T14:14:12;98860.50;;;27.25;37.23
35619;BME280;21743;55.786;37.168;2022-08-30T14:16:40;98852.22;;;27.26;36.93
35619;BME280;21743;55.786;37.168;2022-08-30T14:19:07;98849.81;;;27.25;36.98
35619;BME280;21743;55.786;37.168;2022-08-30T14:21:34;98848.22;;;27.24;37.82
35619;BME280;21743;55.786;37.168;2022-08-30T14:23:59;98834.38;;;27.17;37.42
35619;BME280;21743;55.786;37.168;2022-08-30T14:29:07;98845.31;;;27.15;37.87